Latest Weather Observations for Narrandera Airport

IDN60801

Issued at 7:32 pm EST Thursday 2 July 2015 (issued every 30 minutes, with the page automatically refreshed every 10 minutes)

About weather observations | Map of weather stations | Latest weather observations for NSW | Other Formats
Station Details ID: 074148 Name: NARRANDERA AIRPORT AWS Lat: -34.70 Lon: 146.51 Height: 145.0 m
Data from the previous 72 hours. | See also: Recent months for locations in New South Wales
Date/Time
EST
Temp
°C
App
Temp
°C
Dew
Point
Rel
Hum
%
Delta-T
°C
Wind Press
QNH
hPa
Press
MSL
hPa
Rain
since 9 am
mm
Dir
 
Spd
km/h
Gust
km/h
Spd
kts
Gust
kts
02/07:30pm 7.7 3.4 0.7 61 2.8 SW 13 17 7 9 1026.9 1027.1 0.2
02/07:00pm 7.8 2.8 1.4 64 2.6 SSW 17 24 9 13 1026.4 1026.7 0.2
02/06:30pm 7.6 3.2 2.9 72 2.0 SSW 15 20 8 11 1026.1 1026.4 0.2
02/06:00pm 8.6 4.2 2.6 66 2.5 SSW 15 22 8 12 1025.7 1026.0 0.2
02/05:30pm 9.8 4.9 2.2 59 3.2 SW 17 24 9 13 1025.5 1025.8 0.2
02/05:00pm 10.9 5.7 2.5 56 3.6 SW 19 26 10 14 1024.9 1025.2 0.2
02/04:30pm 11.5 6.3 3.3 57 3.6 SW 20 33 11 18 1024.6 1024.9 0.2
02/04:00pm 11.7 4.1 2.7 54 3.9 SSW 32 46 17 25 1024.3 1024.6 0.2
02/03:30pm 12.2 6.1 4.7 60 3.5 SW 26 41 14 22 1023.8 1024.1 0.2
02/03:00pm 12.6 7.2 4.6 58 3.7 SW 22 39 12 21 1023.2 1023.5 0.2
02/02:30pm 12.2 7.6 6.3 67 2.8 WSW 20 32 11 17 1023.1 1023.4 0.2
02/02:00pm 12.4 8.0 6.5 67 2.8 WSW 19 28 10 15 1023.1 1023.4 0.2
02/01:30pm 12.2 7.7 7.1 71 2.5 WSW 20 28 11 15 1023.0 1023.3 0.2
02/01:00pm 11.5 6.5 6.6 72 2.3 W 22 33 12 18 1022.6 1022.9 0.2
02/12:30pm 10.6 6.7 7.1 79 1.7 WSW 17 26 9 14 1023.4 1023.7 0.2
02/12:00pm 9.7 5.1 6.6 81 1.5 WSW 20 32 11 17 1024.1 1024.4 0.2
02/11:30am 9.8 4.6 5.6 75 1.9 W 22 30 12 16 1024.0 1024.3 0.0
02/11:00am 10.0 5.2 4.8 70 2.3 WNW 19 24 10 13 1024.1 1024.4 0.0
02/10:30am 9.6 4.1 4.0 68 2.5 WNW 22 28 12 15 1024.3 1024.6 0.0
02/10:00am 9.4 4.6 4.8 73 2.1 NW 19 28 10 15 1024.4 1024.7 0.0
02/09:30am 7.6 2.8 4.4 80 1.4 NNW 19 22 10 12 1024.8 1025.1 0.0
02/09:00am 6.9 2.4 4.2 83 1.2 NW 17 22 9 12 1024.9 1025.2 0.2
02/08:30am 6.3 1.8 4.1 86 0.9 NW 17 20 9 11 1024.8 1025.1 0.2
02/08:00am 6.0 1.0 3.7 85 1.0 NW 19 20 10 11 1024.7 1025.0 0.2
02/07:30am 5.7 1.5 3.9 88 0.8 NW 15 19 8 10 1024.5 1024.8 0.2
02/07:00am 5.5 1.3 4.0 90 0.6 NW 15 17 8 9 1024.2 1024.5 0.2
02/06:30am 5.8 2.0 3.8 87 0.9 NW 13 17 7 9 1024.1 1024.4 0.2
02/06:00am 5.8 2.4 4.0 88 0.8 NNW 11 15 6 8 1024.3 1024.6 0.2
02/05:30am 5.8 2.4 4.0 88 0.8 NW 11 15 6 8 1024.5 1024.8 0.2
02/05:00am 5.8 2.4 4.1 89 0.7 NW 11 15 6 8 1024.7 1025.0 0.2
02/04:30am 5.7 2.7 4.2 90 0.6 NW 9 11 5 6 1024.6 1024.9 0.2
02/04:00am 5.6 3.0 4.4 92 0.5 WNW 7 11 4 6 1024.7 1025.0 0.2
02/03:30am 5.4 2.8 4.2 92 0.5 NW 7 9 4 5 1024.8 1025.1 0.2
02/03:00am 5.5 2.2 4.3 92 0.5 NW 11 13 6 7 1025.2 1025.5 0.2
02/02:30am 5.5 2.2 4.3 92 0.5 NW 11 13 6 7 1025.6 1025.9 0.2
02/02:00am 5.3 2.3 4.3 93 0.4 NW 9 11 5 6 1025.8 1026.1 0.2
02/01:30am 5.2 2.6 4.0 92 0.5 NW 7 9 4 5 1025.8 1026.1 0.2
02/01:00am 5.2 3.9 3.9 91 0.5 CALM 0 0 0 0 1026.1 1026.4 0.2
02/12:30am 5.4 2.4 4.1 91 0.6 NW 9 11 5 6 1026.2 1026.5 0.2
02/12:00am 5.6 2.9 3.9 89 0.7 NW 7 9 4 5 1026.3 1026.6 0.2
 
Date/Time
EST
Temp
°C
App
Temp
°C
Dew
Point
Rel
Hum
%
Delta-T
°C
Wind Press
QNH
hPa
Press
MSL
hPa
Rain
since 9 am
mm
Dir
 
Spd
km/h
Gust
km/h
Spd
kts
Gust
kts
01/11:30pm 5.9 2.9 4.1 88 0.8 NW 9 9 5 5 1026.5 1026.8 0.2
01/11:00pm 6.3 5.0 4.0 85 1.0 CALM 0 0 0 0 1026.4 1026.7 0.2
01/10:30pm 7.1 5.0 4.1 81 1.3 W 4 7 2 4 1026.5 1026.8 0.2
01/10:00pm 7.9 6.9 5.4 84 1.1 CALM 0 0 0 0 1026.7 1027.0 0.2
01/09:30pm 8.0 6.9 4.9 81 1.4 CALM 0 0 0 0 1026.9 1027.1 0.2
01/09:00pm 8.5 6.9 4.3 75 1.8 W 2 7 1 4 1026.7 1027.0 0.2
01/08:30pm 9.0 6.3 3.8 70 2.3 W 7 9 4 5 1027.2 1027.5 0.2
01/08:00pm 9.1 6.4 3.9 70 2.3 WSW 7 9 4 5 1027.3 1027.6 0.2
01/07:30pm 8.9 6.6 4.7 75 1.9 WSW 6 7 3 4 1027.0 1027.3 0.2
01/07:00pm 8.9 7.5 5.3 78 1.6 WSW 2 7 1 4 1026.6 1026.9 0.2
01/06:30pm 9.0 8.0 5.6 79 1.6 CALM 0 0 0 0 1026.4 1026.7 0.2
01/06:00pm 9.2 8.1 5.0 75 1.9 CALM 0 0 0 0 1026.6 1026.9 0.2
01/05:30pm 9.7 8.4 4.3 69 2.4 CALM 0 0 0 0 1026.6 1026.9 0.2
01/05:00pm 10.0 8.8 4.4 68 2.5 CALM 0 0 0 0 1026.5 1026.8 0.2
01/04:30pm 10.2 8.1 3.9 65 2.8 WSW 4 7 2 4 1026.6 1026.9 0.2
01/04:00pm 10.4 7.4 3.9 64 2.9 WSW 9 13 5 7 1026.9 1027.1 0.2
01/03:30pm 10.9 7.9 3.9 62 3.1 SSW 9 13 5 7 1026.7 1027.0 0.2
01/03:00pm 11.9 9.5 5.1 63 3.1 WSW 7 17 4 9 1026.3 1026.6 0.2
01/02:30pm 10.8 8.3 4.0 63 3.0 WSW 6 11 3 6 1026.7 1027.0 0.2
01/02:00pm 11.0 7.8 5.1 67 2.7 SW 11 17 6 9 1027.1 1027.4 0.2
01/01:30pm 10.8 7.5 4.7 66 2.8 WSW 11 17 6 9 1027.5 1027.8 0.2
01/01:00pm 10.2 6.9 4.4 67 2.6 SW 11 17 6 9 1027.9 1028.2 0.2
01/12:30pm 10.1 7.3 5.1 71 2.3 SW 9 15 5 8 1028.6 1028.9 0.2
01/12:00pm 9.7 6.8 4.9 72 2.2 WSW 9 15 5 8 1029.1 1029.4 0.2
01/11:30am 9.5 6.8 5.7 77 1.7 SW 9 13 5 7 1029.7 1030.0 0.2
01/11:00am 8.5 5.7 5.3 80 1.4 SSW 9 11 5 6 1030.2 1030.5 0.2
01/10:30am 7.7 5.9 5.3 85 1.1 W 4 9 2 5 1030.4 1030.7 0.2
01/10:00am 6.7 5.8 6.1 96 0.3 CALM 0 0 0 0 1030.2 1030.5 0.2
01/09:30am 4.8 3.6 4.8 100 0.0 CALM 0 0 0 0 1030.2 1030.4 0.2
01/09:00am 2.4 0.8 2.4 100 0.0 CALM 0 0 0 0 1030.0 1030.2 0.0
01/08:30am 1.4 -0.4 1.3 99 0.0 CALM 0 0 0 0 1029.6 1029.8 0.0
01/08:00am -0.1 -2.1 -0.2 99 0.0 CALM 0 0 0 0 1029.4 1029.6 0.0
01/07:30am -0.4 -2.8 -0.5 99 0.0 NE 2 6 1 3 1029.1 1029.3 0.0
01/07:00am -0.2 -2.6 -0.3 99 0.0 NNW 2 7 1 4 1029.0 1029.2 0.0
01/06:30am 0.3 -2.0 0.2 99 0.0 WSW 2 7 1 4 1028.8 1029.0 0.0
01/06:00am -0.3 -2.3 -0.4 99 0.0 CALM 0 0 0 0 1028.5 1028.7 0.0
01/05:30am -0.2 -2.2 -0.3 99 0.0 CALM 0 0 0 0 1028.2 1028.4 0.0
01/05:00am -0.2 -2.2 -0.3 99 0.0 CALM 0 0 0 0 1028.2 1028.4 0.0
01/04:30am 0.0 -2.0 -0.1 99 0.0 CALM 0 0 0 0 1028.3 1028.5 0.0
01/04:00am 0.4 -1.5 0.3 99 0.0 CALM 0 0 0 0 1028.2 1028.4 0.0
01/03:30am 1.4 -0.4 1.3 99 0.0 CALM 0 0 0 0 1028.3 1028.5 0.0
01/03:00am 1.6 -0.2 1.5 99 0.0 CALM 0 0 0 0 1028.5 1028.7 0.0
01/02:30am 2.1 0.4 2.0 99 0.0 CALM 0 0 0 0 1028.9 1029.1 0.0
01/02:00am 2.2 0.2 2.1 99 0.0 SSE 2 6 1 3 1028.8 1029.0 0.0
01/01:30am 2.5 -0.5 2.2 98 0.1 SSE 7 11 4 6 1028.8 1029.0 0.0
01/01:00am 3.1 1.5 2.2 94 0.4 CALM 0 0 0 0 1028.9 1029.1 0.0
01/12:30am 5.3 4.1 4.6 95 0.3 CALM 0 0 0 0 1028.9 1029.1 0.0
01/12:00am 6.0 4.9 5.0 93 0.4 CALM 0 0 0 0 1029.1 1029.3 0.0
 
Date/Time
EST
Temp
°C
App
Temp
°C
Dew
Point
Rel
Hum
%
Delta-T
°C
Wind Press
QNH
hPa
Press
MSL
hPa
Rain
since 9 am
mm
Dir
 
Spd
km/h
Gust
km/h
Spd
kts
Gust
kts
30/11:30pm 6.3 5.2 5.1 92 0.5 CALM 0 0 0 0 1029.2 1029.4 0.0
30/11:00pm 6.6 5.6 5.4 92 0.5 CALM 0 0 0 0 1029.2 1029.4 0.0
30/10:30pm 6.9 5.9 5.5 91 0.6 CALM 0 0 0 0 1029.3 1029.5 0.0
30/10:00pm 6.8 5.7 5.1 89 0.7 CALM 0 0 0 0 1029.2 1029.4 0.0
30/09:30pm 7.4 6.4 5.5 88 0.9 CALM 0 0 0 0 1029.3 1029.5 0.0
30/09:00pm 7.7 6.7 5.7 87 0.9 CALM 0 0 0 0 1029.3 1029.5 0.0
30/08:30pm 7.8 6.7 5.1 83 1.2 CALM 0 0 0 0 1029.3 1029.5 0.0
30/08:00pm 7.8 6.7 5.3 84 1.1 CALM 0 0 0 0 1029.2 1029.4 0.0
30/07:30pm 8.5 7.4 5.1 79 1.5 CALM 0 0 0 0 1029.1 1029.3 0.0
30/07:00pm 8.5 7.2 4.3 75 1.8 CALM 0 0 0 0 1029.0 1029.2 0.0
30/06:30pm 8.7 6.3 4.5 75 1.9 ESE 6 9 3 5 1028.6 1028.8 0.0
30/06:00pm 9.2 5.8 4.2 71 2.2 SSE 11 13 6 7 1028.5 1028.7 0.0
30/05:30pm 9.9 8.5 3.6 65 2.8 CALM 0 0 0 0 1028.3 1028.5 0.0
30/05:00pm 10.1 8.9 4.5 68 2.5 CALM 0 0 0 0 1028.0 1028.2 0.0
30/04:30pm 10.5 8.4 3.8 63 3.0 SW 4 9 2 5 1028.0 1028.2 0.0
30/04:00pm 10.8 8.8 4.5 65 2.8 S 4 7 2 4 1027.9 1028.1 0.0
30/03:30pm 10.9 8.0 4.4 64 2.9 SSW 9 11 5 6 1027.8 1028.0 0.0
30/03:00pm 11.6 9.2 4.3 61 3.3 SW 6 9 3 5 1027.7 1027.9 0.0
30/02:30pm 10.9 7.6 4.4 64 2.9 SW 11 17 6 9 1027.9 1028.1 0.0
30/02:00pm 11.6 7.9 4.6 62 3.2 WSW 13 20 7 11 1027.8 1028.0 0.0
30/01:30pm 10.7 7.5 3.0 59 3.4 SW 9 13 5 7 1027.9 1028.1 0.0
30/01:00pm 10.9 8.1 3.2 59 3.4 WSW 7 15 4 8 1028.1 1028.3 0.0
30/12:30pm 11.0 8.0 4.2 63 3.1 NNW 9 13 5 7 1028.8 1029.0 0.0
30/12:00pm 10.3 7.5 5.3 71 2.3 NW 9 15 5 8 1029.4 1029.6 0.0
30/11:30am 8.6 5.6 6.1 84 1.2 NW 11 13 6 7 1029.9 1030.1 0.0
30/11:00am 7.6 4.6 6.1 90 0.7 NNW 11 15 6 8 1030.0 1030.2 0.0
30/10:30am 7.5 4.0 5.6 88 0.9 NNW 13 15 7 8 1030.4 1030.6 0.0
30/10:00am 7.3 4.3 5.9 91 0.6 NW 11 13 6 7 1030.4 1030.6 0.0
30/09:30am 6.5 3.9 5.9 96 0.3 NW 9 11 5 6 1030.2 1030.4 0.0
30/09:00am 5.4 4.0 5.4 100 0.0 N 2 6 1 3 1030.0 1030.2 0.0
30/08:30am 3.0 0.3 2.9 99 0.0 E 6 9 3 5 1029.7 1029.9 0.0
30/08:00am 0.9 -1.0 0.8 99 0.0 CALM 0 0 0 0 1030.0 1030.2 0.0
30/07:30am 1.9 -1.1 1.8 99 0.0 NW 7 11 4 6 1029.7 1029.9 0.0
30/07:00am 2.6 -1.1 2.5 99 0.0 NW 11 13 6 7 1029.5 1029.7 0.0
30/06:30am 2.8 -1.2 2.7 99 0.0 NW 13 15 7 8 1029.2 1029.4 0.0
30/06:00am 3.5 0.4 3.4 99 0.0 NW 9 11 5 6 1028.9 1029.1 0.0
30/05:30am 3.7 1.0 3.6 99 0.0 NW 7 9 4 5 1028.7 1028.9 0.0
30/05:00am 3.6 1.4 3.5 99 0.0 NNW 4 6 2 3 1028.7 1028.9 0.0
30/04:30am 3.7 1.2 3.6 99 0.0 NNW 6 7 3 4 1028.7 1028.9 0.0
30/04:00am 3.8 2.4 3.7 99 0.0 CALM 0 0 0 0 1028.8 1029.0 0.0
30/03:30am 4.1 2.0 4.0 99 0.0 NW 4 7 2 4 1029.0 1029.2 0.0
30/03:00am 3.3 1.5 3.2 99 0.0 WNW 2 6 1 3 1029.1 1029.3 0.0
30/02:30am 2.1 0.4 2.0 99 0.0 CALM 0 0 0 0 1029.0 1029.2 0.0
30/02:00am 3.0 1.5 2.9 99 0.0 CALM 0 0 0 0 1028.9 1029.1 0.0
30/01:30am 3.3 1.8 3.2 99 0.0 CALM 0 0 0 0 1029.1 1029.3 0.0
30/01:00am 2.9 1.4 2.8 99 0.0 CALM 0 0 0 0 1029.4 1029.6 0.0
30/12:30am 1.6 -0.2 1.5 99 0.0 CALM 0 0 0 0 1029.1 1029.3 0.0
30/12:00am 1.4 -0.4 1.3 99 0.0 CALM 0 0 0 0 1029.3 1029.5 0.0
 
Date/Time
EST
Temp
°C
App
Temp
°C
Dew
Point
Rel
Hum
%
Delta-T
°C
Wind Press
QNH
hPa
Press
MSL
hPa
Rain
since 9 am
mm
Dir
 
Spd
km/h
Gust
km/h
Spd
kts
Gust
kts
29/11:30pm 1.2 -0.6 1.1 99 0.0 CALM 0 0 0 0 1029.3 1029.5 0.0
29/11:00pm 1.5 -0.3 1.4 99 0.0 CALM 0 0 0 0 1029.3 1029.5 0.0
29/10:30pm 2.5 0.9 2.2 98 0.1 CALM 0 0 0 0 1029.5 1029.7 0.0
29/10:00pm 2.3 0.6 2.0 98 0.1 CALM 0 0 0 0 1029.7 1029.9 0.0
29/09:30pm 3.7 2.3 3.6 99 0.0 CALM 0 0 0 0 1030.0 1030.2 0.0
29/09:00pm 3.9 2.5 3.8 99 0.0 CALM 0 0 0 0 1030.0 1030.2 0.0
29/08:30pm 3.6 2.1 3.0 96 0.2 CALM 0 0 0 0 1030.0 1030.2 0.0
29/08:00pm 4.4 3.0 3.4 93 0.4 CALM 0 0 0 0 1030.1 1030.3 0.0

Other Formats:

Comma delimited format used in spreadsheet applications
http://www.bom.gov.au/fwo/IDN60801/IDN60801.95706.axf

JavaScript Object Notation format (JSON) in row-major order
http://www.bom.gov.au/fwo/IDN60801/IDN60801.95706.json